createdAt,value
2023-03-18T00:03:16.299Z,3.40
2023-03-18T00:07:24.156Z,3.20
2023-03-18T00:11:32.027Z,3.50
2023-03-18T00:15:40.067Z,3.50
2023-03-18T00:19:49.221Z,3.60
2023-03-18T00:23:58.811Z,3.30
2023-03-18T00:28:07.178Z,3.60
2023-03-18T00:32:14.919Z,3.40
2023-03-18T00:36:25.963Z,3.20
2023-03-18T00:40:53.430Z,3.50
2023-03-18T00:45:01.686Z,3.70
2023-03-18T00:49:11.315Z,3.10
2023-03-18T00:53:20.099Z,3.70
2023-03-18T00:57:28.251Z,3.40
2023-03-18T01:01:38.276Z,3.90
2023-03-18T01:05:46.385Z,3.70
2023-03-18T01:09:55.168Z,3.50
2023-03-18T01:14:02.895Z,3.60
2023-03-18T01:18:11.748Z,3.40
2023-03-18T01:22:20.079Z,3.60
2023-03-18T01:26:28.204Z,3.60
2023-03-18T01:30:36.432Z,3.70
2023-03-18T01:34:45.138Z,3.40
2023-03-18T01:38:52.994Z,3.20
2023-03-18T01:43:18.700Z,3.50
2023-03-18T01:47:26.789Z,3.60
2023-03-18T01:51:34.856Z,3.60
2023-03-18T01:55:44.026Z,3.30
2023-03-18T01:59:53.691Z,3.70
2023-03-18T02:04:01.911Z,4.30
2023-03-18T02:08:10.231Z,3.30
2023-03-18T02:12:22.159Z,3.80
2023-03-18T02:16:32.643Z,3.50
2023-03-18T02:20:53.925Z,3.50
2023-03-18T02:25:12.322Z,3.50
2023-03-18T02:29:21.430Z,3.20
2023-03-18T02:33:33.286Z,3.60
2023-03-18T02:37:42.376Z,3.60
2023-03-18T02:41:50.664Z,3.90
2023-03-18T02:46:22.661Z,3.70
2023-03-18T02:50:31.670Z,3.20
2023-03-18T02:54:39.600Z,3.20
2023-03-18T02:58:48.342Z,4.10
2023-03-18T03:02:59.652Z,3.40
2023-03-18T03:07:07.819Z,3.80
2023-03-18T03:11:15.977Z,3.60
2023-03-18T03:15:24.219Z,3.60
2023-03-18T03:19:32.309Z,3.50
2023-03-18T03:23:41.400Z,3.80
2023-03-18T03:27:50.480Z,3.70
2023-03-18T03:31:58.444Z,3.80
2023-03-18T03:36:07.286Z,3.70
2023-03-18T03:40:19.247Z,3.90
2023-03-18T03:44:27.442Z,4.10
2023-03-18T03:48:35.487Z,3.70
2023-03-18T03:52:47.217Z,4.80
2023-03-18T03:56:54.818Z,5.30
2023-03-18T04:01:02.709Z,4.80
2023-03-18T04:05:12.859Z,4.00
2023-03-18T04:09:21.644Z,4.10
2023-03-18T04:13:29.906Z,4.00
2023-03-18T04:17:37.943Z,3.90
2023-03-18T04:21:46.507Z,3.80
2023-03-18T04:25:54.322Z,4.40
2023-03-18T04:30:02.089Z,4.70
2023-03-18T04:34:10.093Z,4.30
2023-03-18T04:38:18.152Z,4.20
2023-03-18T04:42:26.642Z,4.00
2023-03-18T04:46:34.934Z,4.40
2023-03-18T04:50:43.915Z,3.90
2023-03-18T04:54:52.197Z,4.30
2023-03-18T04:59:00.954Z,3.90
2023-03-18T05:03:08.768Z,4.30
2023-03-18T05:07:19.308Z,3.70
2023-03-18T05:11:28.514Z,4.10
2023-03-18T05:15:37.317Z,4.00
2023-03-18T05:19:46.855Z,3.90
2023-03-18T05:23:54.783Z,4.50
2023-03-18T05:28:03.094Z,5.00
2023-03-18T05:32:13.218Z,4.40
2023-03-18T05:36:21.119Z,4.00
2023-03-18T05:40:29.350Z,3.80
2023-03-18T05:44:37.434Z,3.60
2023-03-18T05:48:45.474Z,4.00
2023-03-18T05:52:54.045Z,4.00
2023-03-18T05:57:03.348Z,4.10
2023-03-18T06:01:12.208Z,4.20
2023-03-18T06:05:21.476Z,3.50
2023-03-18T06:09:29.001Z,4.20
2023-03-18T06:13:36.855Z,4.40
2023-03-18T06:17:44.682Z,3.90
2023-03-18T06:21:53.071Z,3.50
2023-03-18T06:26:01.184Z,4.10
2023-03-18T06:30:11.562Z,5.20
2023-03-18T06:34:19.189Z,4.60
2023-03-18T06:38:29.056Z,4.40
2023-03-18T06:42:37.845Z,5.40
2023-03-18T06:46:45.641Z,5.10
2023-03-18T06:50:55.326Z,3.90
2023-03-18T06:55:06.514Z,3.90
2023-03-18T06:59:14.794Z,3.60
2023-03-18T07:03:23.711Z,3.70
2023-03-18T07:07:32.478Z,3.90
2023-03-18T07:11:41.210Z,4.20
2023-03-18T07:15:48.989Z,4.80
2023-03-18T07:19:57.586Z,5.30
2023-03-18T07:24:06.224Z,5.10
2023-03-18T07:28:14.818Z,5.50
2023-03-18T07:32:22.980Z,3.70
2023-03-18T07:36:32.265Z,3.90
2023-03-18T07:40:40.399Z,4.00
2023-03-18T07:44:48.618Z,3.80
2023-03-18T07:48:56.561Z,4.10
2023-03-18T07:53:04.876Z,4.10
2023-03-18T07:57:14.073Z,4.40
2023-03-18T08:01:22.167Z,4.60
2023-03-18T08:05:30.165Z,4.70
2023-03-18T08:09:39.599Z,4.80
2023-03-18T08:13:47.912Z,5.00
2023-03-18T08:17:56.651Z,3.90
2023-03-18T08:22:13.858Z,4.60
2023-03-18T08:26:21.809Z,5.20
2023-03-18T08:30:30.835Z,4.80
2023-03-18T08:34:39.077Z,4.60
2023-03-18T08:38:49.577Z,4.10
2023-03-18T08:42:58.782Z,4.40
2023-03-18T08:47:08.408Z,4.10
2023-03-18T08:51:17.221Z,3.80
2023-03-18T08:55:25.646Z,4.00
2023-03-18T08:59:33.549Z,5.00
2023-03-18T09:03:41.724Z,4.20
2023-03-18T09:07:51.268Z,4.30
2023-03-18T09:11:59.479Z,4.10
2023-03-18T09:16:11.373Z,4.10
2023-03-18T09:20:21.073Z,4.20
2023-03-18T09:24:28.648Z,3.60
2023-03-18T09:28:36.578Z,3.50
2023-03-18T09:32:44.897Z,3.90
2023-03-18T09:36:53.145Z,5.10
2023-03-18T09:41:07.203Z,3.60
2023-03-18T09:45:21.471Z,4.00
2023-03-18T09:49:48.452Z,4.10
2023-03-18T09:53:59.925Z,3.80
2023-03-18T09:58:10.560Z,3.90
2023-03-18T10:02:23.978Z,4.10
2023-03-18T10:06:33.099Z,3.90
2023-03-18T10:10:46.349Z,4.30
2023-03-18T10:15:05.119Z,4.40
2023-03-18T10:19:13.236Z,4.00
2023-03-18T10:23:32.357Z,4.20
2023-03-18T10:27:50.733Z,4.20
2023-03-18T10:32:11.913Z,4.00
2023-03-18T10:36:23.984Z,4.60
2023-03-18T10:40:37.638Z,4.60
2023-03-18T10:44:47.797Z,4.50
2023-03-18T10:48:59.281Z,3.90
2023-03-18T10:53:16.242Z,3.70
2023-03-18T10:57:26.235Z,4.00
2023-03-18T11:01:34.191Z,4.40
2023-03-18T11:05:46.118Z,3.90
2023-03-18T11:09:54.246Z,4.10
2023-03-18T11:14:03.062Z,7.00
2023-03-18T11:18:18.402Z,4.60
2023-03-18T11:22:31.286Z,4.50
2023-03-18T11:26:52.433Z,4.30
2023-03-18T11:31:03.562Z,4.80
2023-03-18T11:35:23.017Z,4.90
2023-03-18T11:39:32.181Z,4.70
2023-03-18T11:43:41.055Z,4.50
2023-03-18T11:47:49.284Z,3.90
2023-03-18T11:52:10.947Z,4.30
2023-03-18T11:56:28.879Z,4.50
2023-03-18T12:00:40.758Z,4.70
2023-03-18T12:05:10.065Z,4.40
2023-03-18T12:09:23.263Z,4.60
2023-03-18T12:13:39.696Z,4.50
2023-03-18T12:17:55.734Z,4.70
2023-03-18T12:22:27.417Z,4.60
2023-03-18T12:26:40.771Z,5.10
2023-03-18T12:31:17.138Z,4.80
2023-03-18T12:35:36.703Z,5.00
2023-03-18T12:40:08.234Z,4.90
2023-03-18T12:44:27.940Z,4.90
2023-03-18T12:48:44.560Z,5.20
2023-03-18T12:52:56.707Z,5.20
2023-03-18T12:57:09.126Z,5.00
2023-03-18T13:01:19.804Z,5.00
2023-03-18T13:05:32.457Z,5.50
2023-03-18T13:09:43.942Z,5.20
2023-03-18T13:13:55.945Z,5.00
2023-03-18T13:18:07.707Z,5.30
2023-03-18T13:22:28.114Z,4.90
2023-03-18T13:26:57.214Z,5.60
2023-03-18T13:31:16.013Z,4.70
2023-03-18T13:35:46.443Z,5.40
2023-03-18T13:40:19.398Z,5.30
2023-03-18T13:44:32.228Z,5.20
2023-03-18T13:48:43.843Z,5.40
2023-03-18T13:52:54.012Z,5.10
2023-03-18T13:57:20.428Z,5.20
2023-03-18T14:01:37.181Z,5.50
2023-03-18T14:05:45.678Z,6.00
2023-03-18T14:10:15.322Z,5.00
2023-03-18T14:14:58.516Z,5.40
2023-03-18T14:19:12.867Z,5.50
2023-03-18T14:23:37.088Z,5.80
2023-03-18T14:27:51.485Z,5.70
2023-03-18T14:32:09.280Z,6.00
2023-03-18T14:36:17.760Z,6.00
2023-03-18T14:40:25.743Z,5.90
2023-03-18T14:44:41.631Z,6.30
2023-03-18T14:48:54.490Z,6.30
2023-03-18T14:53:08.552Z,6.00
2023-03-18T14:57:16.584Z,6.50
2023-03-18T15:01:26.641Z,6.10
2023-03-18T15:05:39.252Z,5.90
2023-03-18T15:09:47.470Z,6.50
2023-03-18T15:14:00.538Z,6.50
2023-03-18T15:18:20.885Z,5.40
2023-03-18T15:22:31.734Z,5.70
2023-03-18T15:26:41.087Z,6.60
2023-03-18T15:30:56.243Z,6.10
2023-03-18T15:35:19.109Z,6.80
2023-03-18T15:39:33.712Z,6.50
2023-03-18T15:43:45.942Z,6.70
2023-03-18T15:47:54.124Z,8.00
2023-03-18T15:52:04.186Z,8.00
2023-03-18T15:56:18.086Z,8.10
2023-03-18T16:00:26.390Z,8.10
2023-03-18T16:04:36.619Z,8.00
2023-03-18T16:08:45.247Z,8.00
2023-03-18T16:12:55.639Z,8.20
2023-03-18T16:17:03.969Z,9.30
2023-03-18T16:21:13.644Z,9.30
2023-03-18T16:25:22.475Z,9.10
2023-03-18T16:29:33.356Z,9.00
2023-03-18T16:33:42.995Z,9.20
2023-03-18T16:37:51.070Z,10.10
2023-03-18T16:41:59.059Z,10.00
2023-03-18T16:46:07.942Z,8.70
2023-03-18T16:50:27.404Z,8.70
2023-03-18T16:54:36.662Z,8.40
2023-03-18T16:58:46.732Z,9.30
2023-03-18T17:02:55.737Z,8.80
2023-03-18T17:07:05.921Z,9.80
2023-03-18T17:11:19.271Z,12.10
2023-03-18T17:15:32.396Z,13.60
2023-03-18T17:19:41.335Z,18.50
2023-03-18T17:23:49.160Z,22.00
2023-03-18T17:28:09.354Z,21.90
2023-03-18T17:32:19.927Z,29.30
2023-03-18T17:36:27.917Z,28.50
2023-03-18T17:40:35.569Z,23.60
2023-03-18T17:44:43.662Z,18.80
2023-03-18T17:48:52.587Z,17.10
2023-03-18T17:53:01.409Z,14.50
2023-03-18T17:57:10.279Z,14.50
2023-03-18T18:01:20.384Z,13.70
2023-03-18T18:05:29.145Z,14.50
2023-03-18T18:09:38.493Z,19.20
2023-03-18T18:13:46.703Z,19.70
2023-03-18T18:17:55.318Z,18.80
2023-03-18T18:22:05.849Z,16.30
2023-03-18T18:26:17.445Z,14.70
2023-03-18T18:30:26.296Z,14.10
2023-03-18T18:34:34.448Z,19.40
2023-03-18T18:38:43.525Z,21.60
2023-03-18T18:42:51.970Z,19.80
2023-03-18T18:47:00.257Z,14.30
2023-03-18T18:51:11.482Z,14.80
2023-03-18T18:55:20.347Z,12.70
2023-03-18T18:59:32.584Z,12.60
2023-03-18T19:03:41.775Z,13.50
2023-03-18T19:07:49.717Z,13.20
2023-03-18T19:11:58.477Z,13.60
2023-03-18T19:16:09.122Z,13.00
2023-03-18T19:20:29.837Z,13.80
2023-03-18T19:24:38.409Z,11.70
2023-03-18T19:28:59.400Z,11.30
2023-03-18T19:33:17.089Z,12.60
2023-03-18T19:37:28.942Z,12.10
2023-03-18T19:41:37.275Z,13.60
2023-03-18T19:45:45.471Z,14.40
2023-03-18T19:49:53.524Z,15.20
2023-03-18T19:54:03.550Z,13.40
2023-03-18T19:58:21.491Z,12.90
2023-03-18T20:02:31.317Z,13.10
2023-03-18T20:06:39.628Z,13.40
2023-03-18T20:10:47.500Z,14.30
2023-03-18T20:14:55.479Z,15.70
2023-03-18T20:19:11.682Z,13.70
2023-03-18T20:23:24.211Z,14.90
2023-03-18T20:27:32.076Z,14.40
2023-03-18T20:31:40.332Z,15.20
2023-03-18T20:35:49.039Z,18.00
2023-03-18T20:39:59.696Z,16.20
2023-03-18T20:44:09.111Z,18.00
2023-03-18T20:48:18.303Z,17.30
2023-03-18T20:52:29.856Z,16.60
2023-03-18T20:56:37.831Z,16.50
2023-03-18T21:00:48.039Z,16.60
2023-03-18T21:04:57.180Z,16.40
2023-03-18T21:09:07.113Z,17.50
2023-03-18T21:13:24.295Z,19.00
2023-03-18T21:17:31.837Z,16.50
2023-03-18T21:21:41.280Z,16.20
2023-03-18T21:25:49.043Z,17.10
2023-03-18T21:29:58.468Z,18.20
2023-03-18T21:34:05.900Z,16.60
2023-03-18T21:38:13.811Z,17.00
2023-03-18T21:42:23.727Z,18.50
2023-03-18T21:46:32.325Z,18.00
2023-03-18T21:50:39.897Z,17.00
2023-03-18T21:54:48.509Z,17.90
2023-03-18T21:58:56.800Z,17.70
2023-03-18T22:03:04.247Z,18.80
2023-03-18T22:07:15.385Z,20.50
2023-03-18T22:11:24.126Z,20.80
2023-03-18T22:15:40.379Z,21.50
2023-03-18T22:19:47.840Z,20.00
2023-03-18T22:23:55.660Z,19.80
2023-03-18T22:28:04.141Z,21.50
2023-03-18T22:32:24.450Z,18.80
2023-03-18T22:36:32.772Z,19.90
2023-03-18T22:40:43.638Z,19.60
2023-03-18T22:44:52.162Z,19.00
2023-03-18T22:49:06.652Z,17.30
2023-03-18T22:53:18.402Z,19.70
2023-03-18T22:57:28.168Z,20.20
2023-03-18T23:01:37.696Z,21.00
2023-03-18T23:05:46.281Z,22.00
2023-03-18T23:09:57.193Z,22.90
2023-03-18T23:14:07.957Z,23.40
2023-03-18T23:18:20.388Z,22.10
2023-03-18T23:22:32.333Z,20.30
2023-03-18T23:26:40.090Z,21.00
2023-03-18T23:30:50.948Z,22.80
2023-03-18T23:34:58.592Z,20.70
2023-03-18T23:39:08.350Z,20.70
2023-03-18T23:43:16.916Z,21.90
2023-03-18T23:47:28.076Z,20.30
2023-03-18T23:51:36.159Z,20.50
2023-03-18T23:55:43.796Z,21.20
2023-03-18T23:59:53.286Z,24.20
